createdAt,value
2018-07-11T00:00:16.720Z,148682.53
2018-07-11T00:02:47.775Z,148677.50
2018-07-11T00:05:18.970Z,148706.17
2018-07-11T00:07:49.955Z,148709.91
2018-07-11T00:10:21.364Z,148719.92
2018-07-11T00:12:52.426Z,148722.41
2018-07-11T00:15:23.399Z,148726.19
2018-07-11T00:17:54.616Z,148732.41
2018-07-11T00:20:25.759Z,148707.42
2018-07-11T00:22:56.712Z,148701.19
2018-07-11T00:25:30.031Z,148691.23
2018-07-11T00:28:01.818Z,148675.00
2018-07-11T00:30:32.977Z,148662.56
2018-07-11T00:33:04.135Z,148661.31
2018-07-11T00:35:35.191Z,148667.53
2018-07-11T00:38:06.255Z,148672.52
2018-07-11T00:40:37.492Z,148691.23
2018-07-11T00:43:08.616Z,148661.31
2018-07-11T00:45:40.112Z,148623.92
2018-07-11T00:48:11.145Z,148626.41
2018-07-11T00:50:42.853Z,148612.72
2018-07-11T00:53:14.388Z,148607.75
2018-07-11T00:55:48.216Z,148613.97
2018-07-11T00:58:29.137Z,148626.41
2018-07-11T01:01:11.384Z,148642.64
2018-07-11T01:03:44.027Z,148660.06
2018-07-11T01:06:14.876Z,148652.59
2018-07-11T01:08:46.210Z,148656.33
2018-07-11T01:11:18.913Z,148628.91
2018-07-11T01:13:50.148Z,148605.25
2018-07-11T01:16:22.649Z,148623.92
2018-07-11T01:19:06.625Z,148622.67
2018-07-11T01:21:38.962Z,148628.91
2018-07-11T01:24:11.289Z,148641.39
2018-07-11T01:26:42.588Z,148608.98
2018-07-11T01:29:13.708Z,148607.75
2018-07-11T01:31:44.980Z,148642.64
2018-07-11T01:34:16.083Z,148635.17
2018-07-11T01:36:50.259Z,148645.13
2018-07-11T01:39:21.479Z,148627.66
2018-07-11T01:41:52.677Z,148642.64
2018-07-11T01:44:23.743Z,148646.38
2018-07-11T01:46:55.035Z,148673.75
2018-07-11T01:49:25.840Z,148662.56
2018-07-11T01:52:07.520Z,148643.89
2018-07-11T01:54:38.899Z,148667.53
2018-07-11T01:57:10.946Z,148692.48
2018-07-11T01:59:42.164Z,148697.47
2018-07-11T02:02:13.754Z,148693.72
2018-07-11T02:04:45.240Z,148708.66
2018-07-11T02:07:17.357Z,148708.66
2018-07-11T02:09:49.190Z,148694.97
2018-07-11T02:12:20.429Z,148717.42
2018-07-11T02:15:10.993Z,148714.89
2018-07-11T02:17:43.307Z,148728.69
2018-07-11T02:20:16.568Z,148738.64
2018-07-11T02:22:54.433Z,148727.44
2018-07-11T02:25:25.673Z,148726.19
2018-07-11T02:27:57.685Z,148708.66
2018-07-11T02:30:29.180Z,148704.92
2018-07-11T02:33:00.314Z,148718.67
2018-07-11T02:35:31.323Z,148693.72
2018-07-11T02:38:02.429Z,148688.75
2018-07-11T02:40:34.085Z,148655.09
2018-07-11T02:43:05.210Z,148658.83
2018-07-11T02:45:36.258Z,148651.34
2018-07-11T02:48:07.441Z,148622.67
2018-07-11T02:50:38.535Z,148635.17
2018-07-11T02:53:10.607Z,148627.66
2018-07-11T02:55:41.583Z,148607.75
2018-07-11T02:58:13.535Z,148635.17
2018-07-11T03:00:44.549Z,148653.84
2018-07-11T03:03:16.673Z,148657.58
2018-07-11T03:05:47.665Z,148698.70
2018-07-11T03:08:19.224Z,148727.44
2018-07-11T03:10:50.267Z,148742.38
2018-07-11T03:13:22.637Z,148798.45
2018-07-11T03:15:53.769Z,148944.38
2018-07-11T03:18:25.779Z,149139.00
2018-07-11T03:20:57.056Z,149325.02
2018-07-11T03:23:29.098Z,149596.06
2018-07-11T03:26:00.735Z,149879.86
2018-07-11T03:28:33.188Z,150096.23
2018-07-11T03:31:04.079Z,150310.28
2018-07-11T03:33:34.904Z,150565.77
2018-07-11T03:36:06.236Z,150754.98
2018-07-11T03:38:37.653Z,150968.17
2018-07-11T03:41:08.420Z,151246.69
2018-07-11T03:43:39.508Z,151500.22
2018-07-11T03:46:10.376Z,151692.42
2018-07-11T03:48:41.368Z,151703.70
2018-07-11T03:51:12.648Z,151789.17
2018-07-11T03:53:44.539Z,151730.09
2018-07-11T03:56:15.512Z,151792.94
2018-07-11T03:58:48.739Z,151315.67
2018-07-11T04:01:19.810Z,151379.70
2018-07-11T04:03:51.317Z,151309.41
2018-07-11T04:06:22.449Z,151588.16
2018-07-11T04:08:53.380Z,151818.08
2018-07-11T04:11:24.319Z,152108.45
2018-07-11T04:13:55.316Z,152414.14
2018-07-11T04:16:27.233Z,152565.16
2018-07-11T04:18:58.155Z,152698.61
2018-07-11T04:21:30.083Z,152759.06
2018-07-11T04:24:01.341Z,152926.59
2018-07-11T04:26:32.301Z,152946.72
2018-07-11T04:29:04.301Z,153004.73
2018-07-11T04:31:36.489Z,153232.81
2018-07-11T04:34:07.883Z,153079.02
2018-07-11T04:36:39.224Z,152381.38
2018-07-11T04:39:11.187Z,152410.37
2018-07-11T04:41:42.232Z,152508.50
2018-07-11T04:44:13.642Z,152984.50
2018-07-11T04:46:45.513Z,152760.31
2018-07-11T04:49:16.892Z,153118.13
2018-07-11T04:51:48.506Z,153578.36
2018-07-11T04:54:20.128Z,153829.42
2018-07-11T04:56:51.853Z,154046.52
2018-07-11T04:59:24.748Z,154012.47
2018-07-11T05:01:55.608Z,154001.08
2018-07-11T05:04:27.194Z,154257.44
2018-07-11T05:06:58.311Z,154374.94
2018-07-11T05:09:30.440Z,154318.08
2018-07-11T05:12:01.352Z,154246.03
2018-07-11T05:14:32.414Z,153886.23
2018-07-11T05:17:03.200Z,153438.38
2018-07-11T05:19:34.779Z,152489.64
2018-07-11T05:22:05.880Z,152322.28
2018-07-11T05:24:37.882Z,152755.30
2018-07-11T05:27:08.971Z,153178.59
2018-07-11T05:29:42.235Z,152881.25
2018-07-11T05:32:13.172Z,152988.33
2018-07-11T05:34:44.311Z,153452.22
2018-07-11T05:37:15.425Z,153612.38
2018-07-11T05:39:48.206Z,153680.55
2018-07-11T05:42:19.351Z,154007.38
2018-07-11T05:44:50.629Z,153840.77
2018-07-11T05:47:22.718Z,153213.92
2018-07-11T05:49:53.815Z,153877.41
2018-07-11T05:52:25.087Z,154175.37
2018-07-11T05:54:56.463Z,154193.03
2018-07-11T05:57:28.260Z,154316.81
2018-07-11T06:00:00.209Z,154146.27
2018-07-11T06:02:31.296Z,154223.34
2018-07-11T06:05:02.673Z,154572.06
2018-07-11T06:07:33.881Z,154227.13
2018-07-11T06:10:04.792Z,154195.55
2018-07-11T06:12:35.926Z,153960.75
2018-07-11T06:15:08.184Z,154507.61
2018-07-11T06:17:39.256Z,153834.47
2018-07-11T06:20:10.357Z,154232.16
2018-07-11T06:22:41.382Z,154114.75
2018-07-11T06:25:12.780Z,153598.52
2018-07-11T06:27:44.040Z,153135.75
2018-07-11T06:30:16.939Z,152876.22
2018-07-11T06:32:47.918Z,152722.55
2018-07-11T06:35:18.927Z,152805.64
2018-07-11T06:37:49.899Z,152674.72
2018-07-11T06:40:21.672Z,152571.44
2018-07-11T06:42:53.039Z,152717.52
2018-07-11T06:45:25.976Z,153032.41
2018-07-11T06:47:57.061Z,153103.03
2018-07-11T06:50:29.451Z,153142.03
2018-07-11T06:53:01.413Z,153491.31
2018-07-11T06:55:33.537Z,153298.36
2018-07-11T06:58:04.503Z,153720.86
2018-07-11T07:00:36.555Z,153700.70
2018-07-11T07:03:07.756Z,153693.14
2018-07-11T07:05:39.608Z,154181.67
2018-07-11T07:08:11.527Z,154362.28
2018-07-11T07:10:42.532Z,154153.88
2018-07-11T07:13:13.583Z,154145.00
2018-07-11T07:15:44.623Z,154210.72
2018-07-11T07:18:15.534Z,154422.94
2018-07-11T07:20:46.671Z,154407.78
2018-07-11T07:23:18.178Z,154441.91
2018-07-11T07:25:50.114Z,154061.69
2018-07-11T07:28:22.067Z,154044.00
2018-07-11T07:30:54.080Z,153895.06
2018-07-11T07:33:25.225Z,153478.66
2018-07-11T07:35:56.293Z,153333.66
2018-07-11T07:38:27.810Z,153126.94
2018-07-11T07:41:00.770Z,153191.17
2018-07-11T07:43:32.428Z,153583.39
2018-07-11T07:46:04.049Z,153535.44
2018-07-11T07:48:35.336Z,153293.33
2018-07-11T07:51:06.417Z,153647.73
2018-07-11T07:53:37.496Z,153244.19
2018-07-11T07:56:08.896Z,153139.52
2018-07-11T07:58:40.421Z,153415.59
2018-07-11T08:01:13.581Z,153341.27
2018-07-11T08:03:45.156Z,152762.84
2018-07-11T08:06:16.714Z,152621.77
2018-07-11T08:08:48.022Z,152921.56
2018-07-11T08:11:20.412Z,152648.28
2018-07-11T08:13:51.626Z,152230.44
2018-07-11T08:16:22.806Z,151703.70
2018-07-11T08:18:53.890Z,151382.27
2018-07-11T08:21:25.872Z,151286.80
2018-07-11T08:24:07.568Z,150842.75
2018-07-11T08:26:50.311Z,150943.08
2018-07-11T08:29:31.363Z,150785.08
2018-07-11T08:32:29.305Z,150713.62
2018-07-11T08:35:45.528Z,150709.88
2018-07-11T08:39:13.562Z,150630.94
2018-07-11T08:41:55.045Z,150657.25
2018-07-11T08:44:38.326Z,150692.34
2018-07-11T08:48:24.603Z,150699.86
2018-07-11T08:52:08.992Z,150726.19
2018-07-11T08:54:51.715Z,150733.70
2018-07-11T08:57:33.506Z,150704.86
2018-07-11T09:00:23.396Z,150653.50
2018-07-11T09:03:08.076Z,150597.09
2018-07-11T09:08:56.094Z,150724.94
2018-07-11T09:11:39.700Z,150790.08
2018-07-11T09:14:53.864Z,150758.73
2018-07-11T09:17:36.832Z,150684.84
2018-07-11T09:20:16.755Z,150733.70
2018-07-11T09:25:20.558Z,150708.63
2018-07-11T09:27:51.784Z,150862.84
2018-07-11T09:30:23.071Z,150872.86
2018-07-11T09:32:54.574Z,150966.92
2018-07-11T09:35:26.101Z,151088.56
2018-07-11T09:37:57.725Z,151191.41
2018-07-11T09:40:28.947Z,151394.80
2018-07-11T09:43:00.185Z,151254.22
2018-07-11T09:45:32.053Z,151131.22
2018-07-11T09:48:03.832Z,150994.47
2018-07-11T09:50:36.664Z,150742.47
2018-07-11T09:53:08.635Z,150781.31
2018-07-11T09:55:40.332Z,150826.48
2018-07-11T09:58:11.768Z,150926.75
2018-07-11T10:00:48.299Z,151032.09
2018-07-11T10:03:19.687Z,151118.69
2018-07-11T10:05:51.113Z,151121.19
2018-07-11T10:08:22.652Z,151136.22
2018-07-11T10:10:54.731Z,151219.03
2018-07-11T10:13:27.171Z,151246.69
2018-07-11T10:15:58.723Z,151205.25
2018-07-11T10:18:29.891Z,151185.14
2018-07-11T10:21:01.254Z,151148.81
2018-07-11T10:23:33.034Z,151132.47
2018-07-11T10:26:04.035Z,151168.84
2018-07-11T10:28:35.316Z,151178.88
2018-07-11T10:31:06.413Z,151172.61
2018-07-11T10:33:37.839Z,151158.83
2018-07-11T10:36:09.163Z,151157.58
2018-07-11T10:38:40.318Z,151035.86
2018-07-11T10:41:11.460Z,151057.20
2018-07-11T10:43:54.659Z,151103.66
2018-07-11T10:46:26.936Z,151106.16
2018-07-11T10:48:58.163Z,151109.92
2018-07-11T10:51:29.332Z,151119.94
2018-07-11T10:54:00.746Z,151206.50
2018-07-11T10:56:32.405Z,151241.69
2018-07-11T10:59:03.764Z,151286.80
2018-07-11T11:01:35.857Z,151339.55
2018-07-11T11:04:07.265Z,151328.22
2018-07-11T11:06:38.478Z,151349.56
2018-07-11T11:09:09.614Z,151313.17
2018-07-11T11:11:44.201Z,151311.91
2018-07-11T11:14:15.697Z,151265.50
2018-07-11T11:16:47.024Z,151290.61
2018-07-11T11:19:18.733Z,151205.25
2018-07-11T11:21:50.627Z,151158.83
2018-07-11T11:24:22.188Z,151148.81
2018-07-11T11:26:54.298Z,151221.53
2018-07-11T11:29:25.468Z,151313.17
2018-07-11T11:31:57.818Z,151370.94
2018-07-11T11:34:29.244Z,151404.83
2018-07-11T11:37:00.539Z,151377.19
2018-07-11T11:39:32.169Z,151404.83
2018-07-11T11:42:03.577Z,151414.86
2018-07-11T11:44:34.532Z,151417.38
2018-07-11T11:47:06.395Z,151375.94
2018-07-11T11:49:37.833Z,151324.45
2018-07-11T11:52:08.984Z,151289.36
2018-07-11T11:54:40.382Z,151262.98
2018-07-11T11:57:12.400Z,151245.44
2018-07-11T11:59:44.594Z,151273.02
2018-07-11T12:02:16.867Z,151244.19
2018-07-11T12:04:48.019Z,151151.31
2018-07-11T12:07:19.309Z,151151.31
2018-07-11T12:09:50.538Z,151132.47
2018-07-11T12:12:21.508Z,151127.45
2018-07-11T12:14:52.732Z,151175.11
2018-07-11T12:17:24.525Z,151103.66
2018-07-11T12:19:55.935Z,151003.30
2018-07-11T12:22:28.267Z,151047.14
2018-07-11T12:25:00.847Z,151068.47
2018-07-11T12:27:35.864Z,151040.87
2018-07-11T12:30:09.453Z,151020.83
2018-07-11T12:32:41.103Z,150999.48
2018-07-11T12:35:12.546Z,150983.20
2018-07-11T12:37:44.423Z,150965.67
2018-07-11T12:40:15.457Z,150928.00
2018-07-11T12:42:47.853Z,150998.23
2018-07-11T12:45:19.009Z,151103.66
2018-07-11T12:47:55.714Z,151096.09
2018-07-11T12:50:27.171Z,151067.22
2018-07-11T12:52:58.844Z,151049.69
2018-07-11T12:55:31.012Z,151020.83
2018-07-11T12:58:06.715Z,151073.48
2018-07-11T13:00:38.202Z,151118.69
2018-07-11T13:03:10.966Z,151186.39
2018-07-11T13:05:44.032Z,151187.66
2018-07-11T13:08:16.005Z,151143.75
2018-07-11T13:10:47.245Z,151093.58
2018-07-11T13:13:18.703Z,151134.97
2018-07-11T13:15:50.357Z,151146.30
2018-07-11T13:18:22.056Z,151182.63
2018-07-11T13:20:53.390Z,151168.84
2018-07-11T13:23:25.989Z,151163.84
2018-07-11T13:25:57.598Z,151109.92
2018-07-11T13:28:29.492Z,151035.86
2018-07-11T13:31:00.780Z,151033.36
2018-07-11T13:33:33.113Z,151007.05
2018-07-11T13:36:04.419Z,151020.83
2018-07-11T13:38:36.584Z,151060.97
2018-07-11T13:41:07.939Z,150986.97
2018-07-11T13:43:39.331Z,150984.45
2018-07-11T13:46:10.673Z,151027.09
2018-07-11T13:48:41.837Z,151008.30
2018-07-11T13:51:13.716Z,151000.73
2018-07-11T13:53:46.154Z,150960.66
2018-07-11T13:56:18.183Z,150984.45
2018-07-11T13:58:50.160Z,151000.73
2018-07-11T14:01:21.622Z,151037.11
2018-07-11T14:03:53.111Z,150951.84
2018-07-11T14:06:25.158Z,150961.91
2018-07-11T14:08:57.100Z,150970.67
2018-07-11T14:11:29.433Z,150990.72
2018-07-11T14:14:00.899Z,150951.84
2018-07-11T14:16:33.411Z,150988.22
2018-07-11T14:19:04.719Z,150938.03
2018-07-11T14:21:36.008Z,150948.09
2018-07-11T14:24:07.528Z,150965.67
2018-07-11T14:26:38.741Z,150974.44
2018-07-11T14:29:11.192Z,150978.19
2018-07-11T14:31:42.672Z,150971.94
2018-07-11T14:34:15.857Z,150965.67
2018-07-11T14:36:47.080Z,150988.22
2018-07-11T14:39:19.357Z,151028.34
2018-07-11T14:41:50.567Z,151015.81
2018-07-11T14:44:23.181Z,150926.75
2018-07-11T14:46:55.090Z,150905.41
2018-07-11T14:49:26.620Z,150860.34
2018-07-11T14:51:58.019Z,150879.12
2018-07-11T14:54:29.913Z,150900.41
2018-07-11T14:57:01.565Z,150872.86
2018-07-11T14:59:33.292Z,150811.47
2018-07-11T15:02:04.881Z,150778.81
2018-07-11T15:04:37.469Z,150746.22
2018-07-11T15:07:09.336Z,150714.87
2018-07-11T15:09:42.484Z,150692.34
2018-07-11T15:12:13.900Z,150638.44
2018-07-11T15:14:45.266Z,150664.77
2018-07-11T15:17:17.713Z,150679.83
2018-07-11T15:19:49.413Z,150671.08
2018-07-11T15:22:21.000Z,150634.69
2018-07-11T15:24:52.973Z,150639.69
2018-07-11T15:27:25.485Z,150609.61
2018-07-11T15:29:58.986Z,150578.33
2018-07-11T15:32:31.954Z,150539.50
2018-07-11T15:35:05.466Z,150510.67
2018-07-11T15:37:39.662Z,150448.03
2018-07-11T15:40:12.239Z,150417.97
2018-07-11T15:42:44.831Z,150453.03
2018-07-11T15:45:17.624Z,150464.30
2018-07-11T15:47:52.574Z,150466.80
2018-07-11T15:50:24.213Z,150455.53
2018-07-11T15:52:56.352Z,150466.80
2018-07-11T15:55:30.096Z,150481.86
2018-07-11T15:58:06.615Z,150465.55
2018-07-11T16:00:42.563Z,150409.22
2018-07-11T16:03:15.355Z,150406.72
2018-07-11T16:05:47.856Z,150416.72
2018-07-11T16:08:20.846Z,150443.03
2018-07-11T16:10:53.551Z,150484.36
2018-07-11T16:13:24.702Z,150469.30
2018-07-11T16:15:57.541Z,150470.55
2018-07-11T16:18:31.067Z,150426.72
2018-07-11T16:21:03.081Z,150426.72
2018-07-11T16:23:34.798Z,150434.28
2018-07-11T16:26:07.920Z,150479.34
2018-07-11T16:28:40.537Z,150495.66
2018-07-11T16:31:13.248Z,150444.28
2018-07-11T16:33:45.439Z,150390.45
2018-07-11T16:36:19.079Z,150356.64
2018-07-11T16:38:50.644Z,150297.78
2018-07-11T16:41:24.069Z,150230.16
2018-07-11T16:43:55.635Z,150237.67
2018-07-11T16:46:27.699Z,150225.17
2018-07-11T16:48:59.532Z,150171.31
2018-07-11T16:51:31.567Z,150191.38
2018-07-11T16:54:03.565Z,150182.61
2018-07-11T16:56:35.654Z,150157.56
2018-07-11T16:59:07.846Z,150156.31
2018-07-11T17:01:55.638Z,150136.28
2018-07-11T17:04:27.882Z,150107.53
2018-07-11T17:07:00.828Z,150111.28
2018-07-11T17:09:38.045Z,150086.23
2018-07-11T17:12:12.823Z,150084.98
2018-07-11T17:14:47.237Z,150060.00
2018-07-11T17:17:25.114Z,150055.00
2018-07-11T17:20:08.992Z,150056.25
2018-07-11T17:22:53.415Z,150038.70
2018-07-11T17:25:25.395Z,150028.72
2018-07-11T17:28:02.509Z,150012.47
2018-07-11T17:30:42.419Z,149979.89
2018-07-11T17:33:14.679Z,149983.63
2018-07-11T17:35:53.166Z,149972.39
2018-07-11T17:38:27.393Z,149951.11
2018-07-11T17:40:59.451Z,149932.37
2018-07-11T17:43:39.624Z,149933.62
2018-07-11T17:46:11.314Z,149862.38
2018-07-11T17:48:47.254Z,149921.12
2018-07-11T17:51:28.449Z,149908.59
2018-07-11T17:54:01.270Z,149904.84
2018-07-11T17:57:00.587Z,149881.11
2018-07-11T17:59:48.993Z,149866.13
2018-07-11T18:02:27.231Z,149838.55
2018-07-11T18:05:20.481Z,149841.05
2018-07-11T18:07:53.544Z,149833.56
2018-07-11T18:10:34.741Z,149824.81
2018-07-11T18:13:34.265Z,149813.53
2018-07-11T18:17:18.120Z,149796.05
2018-07-11T18:21:05.268Z,149751.05
2018-07-11T18:23:49.719Z,149729.83
2018-07-11T18:26:38.342Z,149716.05
2018-07-11T18:29:24.338Z,149721.08
2018-07-11T18:32:05.285Z,149701.06
2018-07-11T18:36:53.968Z,149677.34
2018-07-11T18:39:29.418Z,149623.53
2018-07-11T18:42:11.958Z,149603.56
2018-07-11T18:45:05.682Z,149604.81
2018-07-11T18:48:52.665Z,149607.30
2018-07-11T18:51:43.125Z,149618.53
2018-07-11T18:54:19.251Z,149626.08
2018-07-11T18:57:18.124Z,149611.05
2018-07-11T19:00:01.021Z,149621.03
2018-07-11T19:03:12.785Z,149616.03
2018-07-11T19:06:58.704Z,149591.08
2018-07-11T19:09:39.826Z,149587.34
2018-07-11T19:12:27.330Z,149591.08
2018-07-11T19:15:10.447Z,149601.06
2018-07-11T19:18:58.621Z,149608.55
2018-07-11T19:22:07.811Z,149613.55
2018-07-11T19:25:09.486Z,149614.80
2018-07-11T19:27:49.264Z,149607.30
2018-07-11T19:31:33.777Z,149599.81
2018-07-11T19:34:21.925Z,149603.56
2018-07-11T19:37:02.455Z,149594.83
2018-07-11T19:40:52.190Z,149576.06
2018-07-11T19:44:49.673Z,149553.59
2018-07-11T19:47:51.784Z,149477.34
2018-07-11T19:50:33.362Z,149431.13
2018-07-11T19:53:16.494Z,149446.16
2018-07-11T19:56:29.639Z,149456.12
2018-07-11T19:59:02.033Z,149461.13
2018-07-11T20:01:33.640Z,149461.13
2018-07-11T20:04:05.132Z,149481.08
2018-07-11T20:06:36.664Z,149518.61
2018-07-11T20:09:08.576Z,149497.39
2018-07-11T20:11:40.354Z,149481.08
2018-07-11T20:14:12.008Z,149467.36
2018-07-11T20:16:43.503Z,149454.88
2018-07-11T20:19:14.978Z,149452.39
2018-07-11T20:21:46.817Z,149409.92
2018-07-11T20:24:18.204Z,149423.66
2018-07-11T20:26:49.829Z,149412.42
2018-07-11T20:29:21.136Z,149396.20
2018-07-11T20:31:52.767Z,149377.44
2018-07-11T20:34:24.456Z,149357.48
2018-07-11T20:36:55.804Z,149341.28
2018-07-11T20:39:27.172Z,149328.75
2018-07-11T20:41:59.126Z,149327.52
2018-07-11T20:44:31.159Z,149318.78
2018-07-11T20:47:05.162Z,149316.28
2018-07-11T20:49:37.087Z,149303.77
2018-07-11T20:52:09.243Z,149301.28
2018-07-11T20:54:40.596Z,149295.03
2018-07-11T20:57:13.798Z,149288.75
2018-07-11T20:59:55.868Z,149271.30
2018-07-11T21:02:37.651Z,149253.84
2018-07-11T21:05:25.701Z,149248.84
2018-07-11T21:10:10.500Z,149253.84
2018-07-11T21:12:51.326Z,149240.08
2018-07-11T21:17:37.487Z,149238.83
2018-07-11T21:20:08.718Z,149220.13
2018-07-11T21:22:40.471Z,149233.84
2018-07-11T21:25:12.118Z,149238.83
2018-07-11T21:27:43.326Z,149251.34
2018-07-11T21:30:14.637Z,149262.56
2018-07-11T21:32:46.056Z,149293.80
2018-07-11T21:35:17.221Z,149301.28
2018-07-11T21:37:48.329Z,149301.28
2018-07-11T21:40:19.690Z,149301.28
2018-07-11T21:42:51.196Z,149293.80
2018-07-11T21:45:22.911Z,149263.81
2018-07-11T21:47:59.629Z,149267.56
2018-07-11T21:50:30.883Z,149261.33
2018-07-11T21:53:03.304Z,149283.77
2018-07-11T21:55:35.452Z,149292.50
2018-07-11T21:58:06.646Z,149273.80
2018-07-11T22:00:40.559Z,149225.12
2018-07-11T22:03:11.857Z,149227.61
2018-07-11T22:05:44.189Z,149230.11
2018-07-11T22:08:16.414Z,149218.88
2018-07-11T22:10:47.455Z,149201.44
2018-07-11T22:13:18.848Z,149183.94
2018-07-11T22:15:51.753Z,149180.19
2018-07-11T22:18:32.118Z,149167.72
2018-07-11T22:21:01.816Z,149163.98
2018-07-11T22:23:31.466Z,149155.25
2018-07-11T22:26:01.588Z,149154.02
2018-07-11T22:28:30.698Z,149148.97
2018-07-11T22:30:59.537Z,149142.75
2018-07-11T22:33:28.378Z,149126.53
2018-07-11T22:35:57.090Z,149097.78
2018-07-11T22:38:26.096Z,149121.56
2018-07-11T22:40:55.162Z,149140.25
2018-07-11T22:43:24.236Z,149141.50
2018-07-11T22:45:53.444Z,149132.78
2018-07-11T22:48:23.349Z,149130.28
2018-07-11T22:50:52.062Z,149144.00
2018-07-11T22:53:21.336Z,149141.50
2018-07-11T22:55:50.645Z,149144.00
2018-07-11T22:58:19.542Z,149129.03
2018-07-11T23:00:48.645Z,149124.05
2018-07-11T23:03:17.470Z,149102.77
2018-07-11T23:05:46.311Z,149111.53
2018-07-11T23:08:15.548Z,149110.30
2018-07-11T23:10:44.355Z,149096.53
2018-07-11T23:13:13.088Z,149116.53
2018-07-11T23:15:41.972Z,149130.28
2018-07-11T23:18:11.029Z,149116.53
2018-07-11T23:20:39.818Z,149116.53
2018-07-11T23:23:08.900Z,149114.03
2018-07-11T23:25:37.957Z,149124.05
2018-07-11T23:28:06.946Z,149117.77
2018-07-11T23:30:35.595Z,149122.81
2018-07-11T23:33:05.303Z,149120.31
2018-07-11T23:35:34.091Z,149102.77
2018-07-11T23:38:03.194Z,149122.81
2018-07-11T23:40:31.840Z,149121.56
2018-07-11T23:43:00.625Z,149121.56
2018-07-11T23:45:29.542Z,149124.05
2018-07-11T23:47:58.554Z,149124.05
2018-07-11T23:50:27.458Z,149126.53
2018-07-11T23:52:56.381Z,149111.53
2018-07-11T23:55:25.343Z,149094.03
2018-07-11T23:57:55.498Z,149086.56
